Time;durP1;ratioP1;P1;durP2;ratioP2;P2;SDS_P1;SDS_P2;PMS_P1;PMS_P2;Temp;Humidity;BMP_temperature;BMP_pressure;BME280_temperature;BME280_humidity;BME280_pressure;Samples;Min_cycle;Max_cycle;Signal;HPM_P1;HPM_P2
2022/03/30 00:01:25;;;;;;;6.73;4.17;;;;;;;4.36;38.91;97944.03;5111905;28;20039;-64
2022/03/30 00:03:51;;;;;;;4.03;3.57;;;;;;;4.10;38.57;97917.00;5111712;28;20129;-64
2022/03/30 00:06:19;;;;;;;6.30;3.47;;;;;;;4.27;38.36;97937.09;5077931;28;20041;-64
2022/03/30 00:08:45;;;;;;;4.83;3.33;;;;;;;4.31;38.74;97941.03;5094702;28;20058;-64
2022/03/30 00:11:13;;;;;;;5.33;3.30;;;;;;;4.19;38.49;97939.69;5078062;28;20078;-64
2022/03/30 00:13:39;;;;;;;5.40;3.57;;;;;;;4.58;38.44;97941.59;5112678;28;20495;-64
2022/03/30 00:16:07;;;;;;;6.13;3.97;;;;;;;4.33;38.33;97905.75;5111754;28;20040;-64
2022/03/30 00:18:33;;;;;;;7.63;4.50;;;;;;;4.44;38.61;97946.69;5112077;28;20089;-64
2022/03/30 00:20:59;;;;;;;4.90;3.90;;;;;;;4.41;38.28;97953.06;5060462;28;20047;-64
2022/03/30 00:23:28;;;;;;;7.83;4.60;;;;;;;4.33;38.51;97949.59;5112707;28;20032;-64
2022/03/30 00:25:53;;;;;;;5.73;4.07;;;;;;;4.35;38.45;97950.28;5112514;28;20050;-64
2022/03/30 00:28:19;;;;;;;6.20;4.07;;;;;;;4.40;37.84;97958.47;5112535;28;20039;-64
2022/03/30 00:30:46;;;;;;;7.73;4.63;;;;;;;4.31;38.23;97951.56;5094439;28;20055;-64
2022/03/30 00:33:13;;;;;;;5.20;3.93;;;;;;;4.38;38.08;97955.22;5093212;28;20039;-64
2022/03/30 00:35:39;;;;;;;4.37;3.50;;;;;;;4.00;38.62;97911.09;5077841;28;20046;-65
2022/03/30 00:38:05;;;;;;;6.03;3.80;;;;;;;4.05;38.58;97951.63;5094378;28;20040;-64
2022/03/30 00:40:30;;;;;;;6.83;3.57;;;;;;;4.09;38.64;97952.16;5111322;28;20453;-64
2022/03/30 00:42:56;;;;;;;6.73;3.97;;;;;;;3.99;38.32;97948.81;5110877;28;20047;-64
2022/03/30 00:45:23;;;;;;;4.67;3.63;;;;;;;4.17;38.10;97960.88;5094219;28;20120;-64
2022/03/30 00:47:49;;;;;;;10.47;3.20;;;;;;;4.24;38.06;97963.69;5110996;28;20035;-64
2022/03/30 00:50:18;;;;;;;7.70;3.40;;;;;;;4.28;37.46;97963.22;5110964;28;20044;-64
2022/03/30 00:52:46;;;;;;;5.47;3.60;;;;;;;4.28;37.97;97965.00;5094020;28;20050;-64
2022/03/30 00:55:13;;;;;;;4.53;3.63;;;;;;;4.13;37.98;97967.44;5093122;28;20559;-64
2022/03/30 00:57:41;;;;;;;7.30;3.60;;;;;;;4.21;37.95;97958.75;5093896;28;20069;-64
2022/03/30 01:00:09;;;;;;;5.40;3.80;;;;;;;3.99;37.65;97928.63;5110843;28;20108;-65
2022/03/30 01:02:39;;;;;;;6.20;4.13;;;;;;;4.22;37.61;97969.09;5077157;28;20057;-65
2022/03/30 01:05:05;;;;;;;6.07;3.93;;;;;;;4.08;37.94;97977.59;5110787;28;20456;-64
2022/03/30 01:07:31;;;;;;;6.63;3.80;;;;;;;3.94;38.11;97975.56;5093218;28;20069;-64
2022/03/30 01:09:56;;;;;;;7.60;3.43;;;;;;;3.88;38.31;97991.94;5092386;28;20508;-65
2022/03/30 01:12:23;;;;;;;5.30;2.97;;;;;;;3.98;38.19;97976.06;5092391;28;20044;-65
2022/03/30 01:14:49;;;;;;;5.37;3.30;;;;;;;3.80;38.46;97946.44;5075169;28;20043;-65
2022/03/30 01:17:14;;;;;;;4.17;3.20;;;;;;;3.95;38.27;97986.88;5109274;28;20046;-65
2022/03/30 01:19:40;;;;;;;8.40;3.57;;;;;;;3.69;38.56;97941.47;5076410;28;20051;-67
2022/03/30 01:22:07;;;;;;;5.07;3.27;;;;;;;3.94;38.81;97980.81;5075603;28;20050;-66
2022/03/30 01:24:35;;;;;;;5.30;3.57;;;;;;;4.09;38.72;97991.56;5093511;28;20043;-65
2022/03/30 01:27:01;;;;;;;3.77;3.27;;;;;;;4.10;38.70;97998.44;5093407;28;20044;-65
2022/03/30 01:32:26;;;;;;;5.37;3.40;;;;;;;3.92;39.15;97987.19;5095941;28;20055;-66
2022/03/30 01:35:00;;;;;;;4.80;3.47;;;;;;;4.19;39.12;97995.69;5093248;28;20043;-65
2022/03/30 01:37:28;;;;;;;7.17;3.67;;;;;;;3.90;39.33;97962.91;5076344;28;20055;-65
2022/03/30 01:39:57;;;;;;;7.77;4.13;;;;;;;4.16;39.72;97989.94;5111067;28;20484;-66
2022/03/30 01:42:23;;;;;;;6.60;4.03;;;;;;;4.12;39.66;97999.13;5111244;28;20035;-64
2022/03/30 01:44:49;;;;;;;5.30;4.00;;;;;;;4.04;39.91;97991.19;5109769;28;20079;-65
2022/03/30 01:47:15;;;;;;;5.43;3.90;;;;;;;3.94;39.76;97974.72;5092896;28;20547;-65
2022/03/30 01:49:41;;;;;;;8.43;4.43;;;;;;;4.02;39.87;97993.97;5076135;28;20122;-66
2022/03/30 01:52:08;;;;;;;8.00;4.27;;;;;;;4.09;40.34;97999.44;5109986;28;20478;-65
2022/03/30 01:54:36;;;;;;;5.93;4.17;;;;;;;4.19;40.17;98006.22;5110015;28;20051;-64
2022/03/30 01:57:01;;;;;;;7.93;4.33;;;;;;;3.99;40.44;98004.81;5109755;28;20068;-65
2022/03/30 01:59:27;;;;;;;6.73;4.47;;;;;;;3.96;40.62;98009.53;5111016;28;20044;-64
2022/03/30 02:01:53;;;;;;;7.37;4.60;;;;;;;3.96;40.86;98006.91;5075641;28;20046;-64
2022/03/30 02:04:18;;;;;;;6.47;4.60;;;;;;;3.98;40.91;98007.59;5092736;28;20047;-65
2022/03/30 02:06:44;;;;;;;7.27;5.33;;;;;;;3.91;40.89;98019.66;5092389;28;20523;-65
2022/03/30 02:09:12;;;;;;;7.77;4.57;;;;;;;3.63;41.32;97977.00;5092812;28;20075;-64
2022/03/30 02:11:38;;;;;;;7.57;4.63;;;;;;;3.91;41.41;98012.63;5110996;28;20047;-64
2022/03/30 02:14:04;;;;;;;6.17;4.60;;;;;;;3.76;41.71;98008.09;5109623;28;20043;-64
2022/03/30 02:16:30;;;;;;;7.60;5.17;;;;;;;3.67;41.33;98020.38;5092834;28;20078;-65
2022/03/30 02:18:56;;;;;;;6.63;4.63;;;;;;;3.60;41.78;98019.31;5092574;28;20075;-65
2022/03/30 02:21:22;;;;;;;7.20;5.20;;;;;;;3.59;41.68;98025.56;5110910;28;20060;-64
2022/03/30 02:23:49;;;;;;;7.70;4.77;;;;;;;3.49;41.48;98038.78;5075757;28;20038;-64
2022/03/30 02:26:15;;;;;;;5.67;4.57;;;;;;;3.44;41.57;98019.22;5092698;28;20039;-65
2022/03/30 02:28:42;;;;;;;9.47;4.70;;;;;;;3.48;41.42;98039.75;5109871;28;20474;-64
2022/03/30 02:31:10;;;;;;;6.83;4.73;;;;;;;3.42;41.17;98027.25;5109765;28;20052;-64
2022/03/30 02:33:36;;;;;;;9.10;4.60;;;;;;;3.21;41.37;98011.00;5110857;28;20039;-63
2022/03/30 02:36:09;;;;;;;7.57;5.00;;;;;;;3.66;41.22;98046.78;5075673;28;20051;-64
2022/03/30 02:38:34;;;;;;;7.17;5.17;;;;;;;3.38;40.99;98046.88;5109491;28;20040;-63
2022/03/30 02:41:01;;;;;;;8.40;4.90;;;;;;;3.26;41.53;98042.00;5109242;28;20078;-65
2022/03/30 02:43:26;;;;;;;6.43;4.53;;;;;;;3.22;41.60;98059.88;5109381;28;20499;-59
2022/03/30 02:45:52;;;;;;;7.70;4.83;;;;;;;3.17;41.78;98059.50;5108051;28;20035;-64
2022/03/30 02:48:17;;;;;;;7.80;4.93;;;;;;;3.18;41.69;98068.19;5107762;28;20733;-64
2022/03/30 02:50:48;;;;;;;6.77;4.67;;;;;;;3.39;42.04;98069.53;5074117;28;20057;-61
2022/03/30 02:53:14;;;;;;;7.15;4.82;;;;;;;3.27;42.02;98070.75;5085987;28;20046;-63
2022/03/30 02:55:40;;;;;;;5.67;4.57;;;;;;;3.25;42.19;98084.97;5106592;28;20036;-60
2022/03/30 02:58:07;;;;;;;7.67;4.83;;;;;;;3.12;42.09;98076.66;5103677;28;20047;-62
2022/03/30 03:00:32;;;;;;;7.00;5.40;;;;;;;3.17;42.84;98087.50;5111233;28;20199;-63
2022/03/30 03:03:00;;;;;;;10.33;4.90;;;;;;;3.11;42.89;98057.47;5110991;28;20629;-63
2022/03/30 03:05:31;;;;;;;8.37;5.17;;;;;;;3.11;43.11;98081.06;5112091;27;20043;-63
2022/03/30 03:08:06;;;;;;;;;;;;;;;3.31;43.20;98082.56;5111853;28;20043;-63
2022/03/30 03:10:34;;;;;;;6.43;4.97;;;;;;;3.07;43.25;98087.59;5112458;28;19964;-65
2022/03/30 03:13:03;;;;;;;8.93;4.63;;;;;;;3.00;42.90;98102.25;5111726;28;20045;-62
2022/03/30 03:15:30;;;;;;;6.97;4.80;;;;;;;3.07;42.82;98105.97;5112390;28;20051;-64
2022/03/30 03:17:55;;;;;;;6.33;4.13;;;;;;;3.02;41.90;98109.97;5112006;28;20126;-65
2022/03/30 03:20:21;;;;;;;5.47;3.63;;;;;;;3.10;40.74;98115.31;5093384;28;20142;-65
2022/03/30 03:22:47;;;;;;;4.20;3.30;;;;;;;3.02;40.00;98115.22;5112141;28;20031;-64
2022/03/30 03:25:12;;;;;;;5.80;3.73;;;;;;;3.01;39.96;98127.50;5112451;28;20092;-64
2022/03/30 03:27:38;;;;;;;6.93;3.70;;;;;;;3.08;40.02;98128.59;5110795;28;20054;-64
2022/03/30 03:30:05;;;;;;;8.97;4.13;;;;;;;3.00;40.08;98097.03;5092959;28;20134;-63
2022/03/30 03:32:31;;;;;;;5.60;3.53;;;;;;;2.77;39.75;98094.94;5110664;28;20036;-63
2022/03/30 03:34:57;;;;;;;5.07;3.47;;;;;;;2.95;39.52;98143.03;5111271;28;20564;-64
2022/03/30 03:37:23;;;;;;;4.87;3.07;;;;;;;2.66;39.83;98118.75;5093406;28;20046;-64
2022/03/30 03:39:48;;;;;;;6.77;3.33;;;;;;;2.86;40.11;98138.66;5109634;28;20032;-64
2022/03/30 03:42:16;;;;;;;7.13;3.63;;;;;;;2.95;40.35;98143.81;5110153;28;20032;-65
2022/03/30 03:44:42;;;;;;;6.00;3.63;;;;;;;2.93;40.12;98150.19;5110614;28;20040;-63
2022/03/30 03:47:09;;;;;;;9.13;4.07;;;;;;;2.64;40.19;98118.06;5110563;28;20059;-64
2022/03/30 03:49:39;;;;;;;5.70;3.60;;;;;;;2.91;40.12;98150.34;5092090;28;20054;-64
2022/03/30 03:52:05;;;;;;;5.23;3.60;;;;;;;2.90;40.24;98158.38;5112158;28;20137;-64
2022/03/30 03:54:32;;;;;;;6.60;3.87;;;;;;;2.89;40.05;98168.00;5093530;28;20131;-64
2022/03/30 03:56:58;;;;;;;5.43;3.67;;;;;;;2.74;39.81;98166.00;5094215;28;20040;-66
2022/03/30 03:59:23;;;;;;;4.57;3.57;;;;;;;2.77;39.82;98181.44;5093995;28;20482;-63
2022/03/30 04:01:49;;;;;;;6.83;3.63;;;;;;;2.71;39.48;98172.38;5110880;28;20557;-63
2022/03/30 04:04:18;;;;;;;9.10;4.07;;;;;;;2.77;39.01;98182.28;5111560;28;20075;-62
2022/03/30 04:06:44;;;;;;;10.80;4.00;;;;;;;2.72;39.27;98184.50;5112030;28;20457;-63
2022/03/30 04:09:10;;;;;;;5.93;3.87;;;;;;;2.57;39.47;98159.75;5093647;28;20071;-63
2022/03/30 04:11:36;;;;;;;7.27;3.90;;;;;;;2.72;39.72;98184.50;5110903;27;20527;-61
2022/03/30 04:14:02;;;;;;;7.30;4.07;;;;;;;2.66;39.43;98186.91;5111341;28;20048;-60
2022/03/30 04:16:27;;;;;;;9.00;4.30;;;;;;;2.49;39.20;98185.03;5093454;28;20071;-64
2022/03/30 04:19:00;;;;;;;5.93;3.60;;;;;;;2.64;38.99;98187.06;5111733;28;20032;-64
2022/03/30 04:21:26;;;;;;;6.53;3.70;;;;;;;2.44;38.90;98200.34;5110361;28;20043;-64
2022/03/30 04:23:51;;;;;;;15.77;6.07;;;;;;;2.27;38.81;98199.28;5111588;28;20039;-64
2022/03/30 04:26:17;;;;;;;5.47;3.40;;;;;;;2.27;38.63;98204.53;5093270;28;20079;-64
2022/03/30 04:28:43;;;;;;;5.03;2.93;;;;;;;2.29;38.89;98205.19;5110047;28;20046;-64
2022/03/30 04:31:12;;;;;;;6.20;3.33;;;;;;;2.41;39.07;98206.72;5110286;28;20048;-64
2022/03/30 04:33:39;;;;;;;;;;;;;;;2.71;38.49;98206.47;5110715;28;20089;-64
2022/03/30 04:36:08;;;;;;;4.17;3.47;;;;;;;2.34;38.73;98215.28;5110823;28;19916;-64
2022/03/30 04:38:34;;;;;;;6.83;3.70;;;;;;;2.35;38.90;98211.69;5091255;28;20039;-64
2022/03/30 04:41:00;;;;;;;9.30;4.00;;;;;;;2.32;38.85;98212.75;5111191;28;20430;-63
2022/03/30 04:43:27;;;;;;;6.57;4.40;;;;;;;2.37;39.23;98217.63;5092758;28;20035;-63
2022/03/30 04:45:54;;;;;;;6.47;4.40;;;;;;;2.44;39.22;98224.75;5111209;28;20480;-63
2022/03/30 04:48:20;;;;;;;5.93;4.20;;;;;;;2.41;39.33;98229.44;5092648;28;20051;-63
2022/03/30 04:50:46;;;;;;;11.67;4.23;;;;;;;2.32;39.25;98225.06;5109516;28;20047;-63
2022/03/30 04:53:12;;;;;;;5.67;3.93;;;;;;;2.40;39.35;98227.81;5110000;28;20100;-64
2022/03/30 04:55:39;;;;;;;4.27;3.40;;;;;;;2.49;38.81;98238.25;5110652;28;20055;-63
2022/03/30 04:58:05;;;;;;;10.17;3.63;;;;;;;2.71;38.13;98235.28;5109356;28;20420;-63
2022/03/30 05:00:32;;;;;;;4.60;3.57;;;;;;;2.86;37.92;98246.16;5091905;28;20039;-63
2022/03/30 05:02:57;;;;;;;7.73;3.87;;;;;;;2.88;38.65;98244.19;5110051;28;20479;-63
2022/03/30 05:05:23;;;;;;;6.10;3.13;;;;;;;2.88;38.36;98252.06;5110912;28;20126;-63
2022/03/30 05:07:51;;;;;;;6.50;3.10;;;;;;;2.79;38.30;98243.28;5110701;28;20035;-63
2022/03/30 05:10:17;;;;;;;7.87;3.40;;;;;;;2.89;38.51;98256.34;5109042;28;20059;-63
2022/03/30 05:12:43;;;;;;;3.87;2.83;;;;;;;3.12;38.36;98249.75;5109044;28;20036;-63
2022/03/30 05:15:10;;;;;;;7.53;2.90;;;;;;;3.23;38.21;98266.13;5091873;28;20416;-63
2022/03/30 05:17:41;;;;;;;7.43;3.50;;;;;;;3.31;37.84;98268.84;5110866;28;20031;-63
2022/03/30 05:20:07;;;;;;;4.15;2.63;;;;;;;3.18;37.95;98281.47;5110412;28;20055;-63
2022/03/30 05:22:33;;;;;;;5.67;2.70;;;;;;;3.09;37.93;98245.63;5092275;28;20047;-63
2022/03/30 05:25:03;;;;;;;3.13;2.67;;;;;;;3.63;37.49;98276.25;5109253;28;20036;-63
2022/03/30 05:27:29;;;;;;;6.40;3.08;;;;;;;3.60;37.25;98275.75;5109062;28;20044;-64
2022/03/30 05:29:55;;;;;;;4.27;3.47;;;;;;;3.65;37.14;98284.81;5108617;28;20425;-64
2022/03/30 05:32:20;;;;;;;3.93;3.00;;;;;;;3.82;36.83;98289.25;5109006;28;20036;-64
2022/03/30 05:34:46;;;;;;;5.43;3.20;;;;;;;3.94;36.69;98288.06;5108810;28;20051;-64
2022/03/30 05:37:12;;;;;;;5.67;3.03;;;;;;;4.14;36.09;98286.09;5110384;28;20039;-64
2022/03/30 05:39:42;;;;;;;3.73;3.23;;;;;;;4.11;35.93;98287.25;5110215;28;20440;-64
2022/03/30 05:42:12;;;;;;;5.67;3.40;;;;;;;4.30;35.64;98299.41;5109423;28;20036;-64
2022/03/30 05:44:38;;;;;;;3.20;2.90;;;;;;;4.07;35.37;98300.84;5110628;28;20097;-66
2022/03/30 05:47:06;;;;;;;5.07;2.90;;;;;;;4.28;35.43;98296.94;5110482;28;20047;-65
2022/03/30 05:49:34;;;;;;;5.40;2.97;;;;;;;4.08;35.02;98303.31;5109936;28;20134;-64
2022/03/30 05:51:59;;;;;;;3.53;2.83;;;;;;;3.83;34.61;98303.22;5108875;28;20496;-64
2022/03/30 05:54:25;;;;;;;4.07;2.73;;;;;;;3.90;34.54;98302.47;5109808;28;20046;-63
2022/03/30 05:57:03;;;;;;;3.37;2.83;;;;;;;4.17;34.35;98317.34;5092097;28;20081;-63
2022/03/30 05:59:34;;;;;;;6.07;3.00;;;;;;;4.67;34.02;98321.06;5108767;28;20050;-63
2022/03/30 06:02:00;;;;;;;;;;;;;;;5.10;33.37;98310.50;5110301;28;20062;-63
2022/03/30 06:04:26;;;;;;;4.63;3.40;;;;;;;4.97;33.21;98294.28;5091956;28;19916;-64
2022/03/30 06:06:52;;;;;;;5.90;3.20;;;;;;;5.01;33.05;98314.88;5108465;28;20039;-63
2022/03/30 06:09:19;;;;;;;4.27;3.23;;;;;;;4.90;33.03;98309.91;5109496;28;20051;-63
2022/03/30 06:11:45;;;;;;;3.90;3.03;;;;;;;4.67;34.18;98310.53;5109113;28;20092;-64
2022/03/30 06:14:14;;;;;;;5.47;3.00;;;;;;;4.76;33.44;98312.25;5108571;28;20032;-64
2022/03/30 06:16:41;;;;;;;3.53;2.90;;;;;;;4.79;33.84;98317.19;5092042;28;20523;-63
2022/03/30 06:19:09;;;;;;;8.77;3.10;;;;;;;5.23;32.92;98321.41;5074958;28;20039;-64
2022/03/30 06:21:35;;;;;;;5.27;3.07;;;;;;;5.16;32.22;98317.78;5090709;28;20478;-63
2022/03/30 06:24:08;;;;;;;4.37;2.87;;;;;;;5.46;31.84;98324.34;5109896;28;20535;-63
2022/03/30 06:26:34;;;;;;;5.33;3.60;;;;;;;5.41;31.99;98322.19;5108977;28;20058;-64
2022/03/30 06:28:59;;;;;;;4.00;3.30;;;;;;;5.32;32.09;98324.94;5109880;28;20504;-64
2022/03/30 06:31:25;;;;;;;4.60;2.90;;;;;;;5.53;32.03;98330.63;5092715;28;20093;-63
2022/03/30 06:33:51;;;;;;;3.33;2.80;;;;;;;5.55;30.76;98312.84;5113190;28;20348;-63
2022/03/30 06:36:16;;;;;;;4.03;2.50;;;;;;;5.95;29.62;98342.81;5112511;28;20050;-64
2022/03/30 06:38:45;;;;;;;3.93;3.10;;;;;;;6.17;29.21;98347.50;5112464;28;20515;-64
2022/03/30 06:41:16;;;;;;;8.53;4.50;;;;;;;6.37;29.54;98345.38;5112449;28;20535;-64
2022/03/30 06:43:46;;;;;;;8.37;3.60;;;;;;;6.43;29.33;98356.09;5095556;28;20175;-63
2022/03/30 06:46:16;;;;;;;9.57;4.10;;;;;;;6.81;28.93;98355.44;5114506;28;20046;-64
2022/03/30 06:48:42;;;;;;;3.87;2.70;;;;;;;6.88;28.49;98347.69;5112627;28;20036;-63
2022/03/30 06:51:09;;;;;;;4.07;2.37;;;;;;;6.64;28.30;98356.44;5113026;28;20083;-64
2022/03/30 06:53:35;;;;;;;2.83;2.50;;;;;;;6.83;28.24;98357.91;5113311;28;20077;-64
2022/03/30 06:56:01;;;;;;;4.80;2.77;;;;;;;7.26;27.70;98367.31;5113484;28;20123;-63
2022/03/30 06:58:27;;;;;;;3.53;2.33;;;;;;;7.43;26.88;98358.31;5113019;28;20067;-64
2022/03/30 07:00:52;;;;;;;2.33;2.00;;;;;;;7.03;26.57;98324.91;5112906;28;20036;-65
2022/03/30 07:03:19;;;;;;;7.07;2.80;;;;;;;7.31;26.77;98349.09;5113230;28;20052;-64
2022/03/30 07:05:45;;;;;;;2.70;2.40;;;;;;;6.93;26.95;98366.50;5113547;27;20036;-64
2022/03/30 07:10:54;;;;;;;2.70;1.90;;;;;;;6.69;26.89;98369.13;5112600;28;20526;-64
2022/03/30 07:13:22;;;;;;;3.60;2.70;;;;;;;6.62;27.32;98370.78;5111860;28;20130;-64
2022/03/30 07:15:50;;;;;;;2.23;2.03;;;;;;;7.00;26.52;98382.47;5112695;28;20127;-64
2022/03/30 07:18:19;;;;;;;2.80;2.10;;;;;;;7.09;26.01;98378.88;5113000;28;20031;-64
2022/03/30 07:20:45;;;;;;;3.20;1.93;;;;;;;7.48;25.26;98380.59;5113145;28;20401;-64
2022/03/30 07:23:11;;;;;;;2.53;1.80;;;;;;;7.66;24.39;98383.00;5112870;28;20120;-64
2022/03/30 07:25:37;;;;;;;1.97;1.70;;;;;;;7.83;24.19;98361.66;5111628;28;20038;-64
2022/03/30 07:28:03;;;;;;;2.07;1.87;;;;;;;8.39;24.09;98384.38;5061009;28;20035;-64
2022/03/30 07:30:33;;;;;;;4.28;1.80;;;;;;;8.97;23.52;98384.63;5094429;28;20051;-64
2022/03/30 07:32:59;;;;;;;2.35;2.00;;;;;;;9.60;23.19;98382.34;5112693;28;20056;-64
2022/03/30 07:35:32;;;;;;;3.70;2.05;;;;;;;11.22;21.67;98390.56;5111373;28;20050;-64
2022/03/30 07:37:58;;;;;;;2.30;1.80;;;;;;;13.71;19.17;98386.91;5095786;28;20040;-64
2022/03/30 07:40:24;;;;;;;5.10;2.28;;;;;;;16.90;15.85;98373.63;5111418;28;20046;-64
2022/03/30 07:42:51;;;;;;;5.75;3.45;;;;;;;19.52;13.27;98387.13;5110670;28;20058;-65
2022/03/30 07:45:18;;;;;;;5.55;1.95;;;;;;;22.09;11.58;98388.94;5112203;28;20086;-65
2022/03/30 07:47:44;;;;;;;3.97;1.83;;;;;;;23.63;10.01;98378.03;5111672;28;20130;-64
2022/03/30 07:50:11;;;;;;;4.85;1.88;;;;;;;24.10;10.03;98392.06;5111182;28;20051;-65
2022/03/30 07:52:37;;;;;;;1.83;1.45;;;;;;;23.67;9.42;98373.66;5110482;28;20050;-65
2022/03/30 07:55:05;;;;;;;2.45;1.80;;;;;;;24.46;8.98;98394.41;5111984;28;20515;-65
2022/03/30 07:57:30;;;;;;;3.42;1.90;;;;;;;23.57;9.54;98400.78;5109939;28;20054;-65
2022/03/30 07:59:57;;;;;;;5.15;1.42;;;;;;;22.89;9.08;98386.59;5111690;27;20051;-65
2022/03/30 08:02:23;;;;;;;3.85;1.58;;;;;;;23.95;8.80;98395.63;5110329;28;20043;-65
2022/03/30 08:04:49;;;;;;;2.78;1.50;;;;;;;25.31;7.92;98395.88;5110748;28;20047;-65
2022/03/30 08:07:15;;;;;;;2.22;1.63;;;;;;;27.22;6.92;98378.31;5110448;28;20036;-66
2022/03/30 08:09:42;;;;;;;1.95;1.35;;;;;;;25.83;6.60;98404.19;5110656;28;20047;-65
2022/03/30 08:12:10;;;;;;;3.15;1.60;;;;;;;25.21;7.11;98404.13;5110746;28;20035;-66
2022/03/30 08:14:36;;;;;;;2.28;1.20;;;;;;;24.02;7.68;98388.03;5093498;28;20047;-65
2022/03/30 08:17:01;;;;;;;3.22;1.40;;;;;;;23.67;7.86;98389.94;5110033;28;20047;-65
2022/03/30 08:19:27;;;;;;;1.98;1.40;;;;;;;25.10;7.26;98394.41;5109789;28;20801;-68
2022/03/30 08:24:39;;;;;;;1.92;1.40;;;;;;;28.43;5.75;98404.34;5092921;28;20459;-67
2022/03/30 08:27:05;;;;;;;2.58;1.67;;;;;;;25.27;7.23;98396.72;5111098;28;20039;-67
2022/03/30 08:29:31;;;;;;;2.78;1.50;;;;;;;25.09;7.28;98402.81;5109712;28;20047;-67
2022/03/30 08:31:57;;;;;;;4.45;1.85;;;;;;;22.71;8.38;98351.88;5110017;28;20556;-66
2022/03/30 08:34:25;;;;;;;2.15;1.80;;;;;;;22.31;8.38;98365.22;5110992;28;20047;-66
2022/03/30 08:36:50;;;;;;;2.45;1.40;;;;;;;22.48;8.60;98406.44;5110718;28;20160;-66
2022/03/30 08:39:18;;;;;;;1.55;1.30;;;;;;;21.33;9.06;98386.72;5109713;28;20156;-66
2022/03/30 08:41:45;;;;;;;8.15;6.18;;;;;;;22.47;8.51;98393.16;5109870;28;20039;-66
2022/03/30 08:44:17;;;;;;;2.15;1.60;;;;;;;23.76;8.00;98404.56;5110884;28;20062;-66
2022/03/30 08:46:46;;;;;;;3.70;1.50;;;;;;;22.08;8.47;98383.78;5092891;28;20039;-66
2022/03/30 08:49:15;;;;;;;2.08;1.60;;;;;;;22.58;8.34;98403.81;5109952;28;20052;-67
2022/03/30 08:51:45;;;;;;;2.23;1.53;;;;;;;22.87;8.27;98407.72;5110211;28;20093;-66
2022/03/30 08:54:12;;;;;;;1.60;1.50;;;;;;;24.22;7.28;98384.44;5110139;28;20301;-67
2022/03/30 08:56:39;;;;;;;1.90;1.70;;;;;;;24.19;7.14;98407.53;5092517;28;20039;-66
2022/03/30 08:59:07;;;;;;;1.70;1.60;;;;;;;25.62;6.99;98410.06;5109881;28;20057;-67
2022/03/30 09:01:33;;;;;;;3.15;1.60;;;;;;;27.42;6.24;98405.31;5109082;28;20544;-66
2022/03/30 09:04:01;;;;;;;1.98;1.20;;;;;;;27.28;6.17;98403.59;5109610;28;20044;-67
2022/03/30 09:06:38;;;;;;;3.75;1.10;;;;;;;25.94;6.33;98405.72;5110782;28;20031;-67
2022/03/30 09:09:06;;;;;;;5.57;1.30;;;;;;;23.76;7.44;98386.41;5092404;28;20035;-67
2022/03/30 09:11:40;;;;;;;2.78;1.23;;;;;;;21.17;8.86;98401.16;5091944;28;20129;-67
2022/03/30 09:14:08;;;;;;;3.00;1.40;;;;;;;19.71;9.96;98401.94;5075041;28;20043;-67
2022/03/30 09:16:42;;;;;;;2.25;1.30;;;;;;;19.77;9.84;98397.47;5075013;28;20582;-67
2022/03/30 09:19:10;;;;;;;3.00;1.50;;;;;;;19.01;10.22;98394.53;5110332;28;20039;-67
2022/03/30 09:21:53;;;;;;;22.38;13.55;;;;;;;17.84;11.03;98392.34;5091719;28;20062;-67
2022/03/30 09:24:21;;;;;;;4.88;2.33;;;;;;;17.24;11.32;98410.47;5091853;28;20196;-67
2022/03/30 09:26:47;;;;;;;3.83;2.05;;;;;;;16.18;12.20;98398.69;5091914;28;20050;-67
2022/03/30 09:29:13;;;;;;;3.88;1.75;;;;;;;14.58;13.59;98407.59;5109401;28;20054;-66
2022/03/30 09:31:41;;;;;;;8.02;1.95;;;;;;;13.60;14.75;98385.69;5091971;28;20040;-66
2022/03/30 09:34:09;;;;;;;6.32;2.05;;;;;;;15.76;13.87;98417.47;5108890;28;20456;-67
2022/03/30 09:36:40;;;;;;;3.40;1.63;;;;;;;16.86;12.88;98410.03;5108922;28;20150;-66
2022/03/30 09:39:09;;;;;;;2.30;1.50;;;;;;;16.46;12.79;98388.28;5109111;28;20122;-66
2022/03/30 09:41:49;;;;;;;5.18;2.10;;;;;;;18.07;12.06;98411.13;5092067;28;20948;-66
2022/03/30 09:44:16;;;;;;;2.22;1.90;;;;;;;20.86;10.36;98424.28;5109178;28;20141;-69
2022/03/30 09:47:05;;;;;;;2.55;1.40;;;;;;;21.36;9.39;98424.00;5109658;28;20039;-67
2022/03/30 09:49:32;;;;;;;2.63;1.80;;;;;;;21.71;8.95;98417.03;5091922;28;20047;-67
2022/03/30 09:51:58;;;;;;;2.35;1.42;;;;;;;23.62;8.36;98422.50;5108554;28;20031;-66
2022/03/30 09:54:59;;;;;;;2.08;1.30;;;;;;;25.16;6.51;98419.63;5091582;28;20062;-66
2022/03/30 09:57:34;;;;;;;2.28;1.33;;;;;;;25.00;6.79;98416.22;5049693;28;20040;-67
2022/03/30 10:00:19;;;;;;;1.67;1.50;;;;;;;27.20;5.46;98393.34;5092044;28;20044;-67
2022/03/30 10:02:48;;;;;;;4.03;1.13;;;;;;;25.15;5.61;98418.81;5109108;28;20039;-67
2022/03/30 10:05:16;;;;;;;2.15;1.23;;;;;;;22.66;7.39;98397.91;5074765;28;20050;-67
2022/03/30 10:07:42;;;;;;;1.77;1.30;;;;;;;23.37;7.36;98409.75;5108628;28;20043;-67
2022/03/30 10:10:10;;;;;;;1.13;1.02;;;;;;;24.15;7.13;98383.94;5108718;28;20530;-67
2022/03/30 10:12:37;;;;;;;4.07;1.20;;;;;;;24.34;6.90;98409.41;5090998;28;20032;-67
2022/03/30 10:15:04;;;;;;;1.90;1.00;;;;;;;23.28;6.62;98408.63;5075113;28;20073;-67
2022/03/30 10:17:30;;;;;;;1.52;1.10;;;;;;;23.10;7.42;98412.63;5108341;28;20572;-67
2022/03/30 10:19:58;;;;;;;1.23;1.10;;;;;;;21.52;7.26;98399.59;5108509;28;20146;-67
2022/03/30 10:22:45;;;;;;;1.35;1.00;;;;;;;16.75;9.84;98400.88;5108154;28;20039;-67
2022/03/30 10:25:41;;;;;;;2.03;0.95;;;;;;;14.94;11.35;98374.91;5108341;28;20059;-67
2022/03/30 10:28:51;;;;;;;1.60;1.10;;;;;;;12.61;12.25;98402.59;5104532;28;20044;-66
2022/03/30 10:31:21;;;;;;;1.23;1.10;;;;;;;11.61;13.08;98400.63;5108365;28;20046;-66
2022/03/30 10:33:47;;;;;;;6.10;0.93;;;;;;;11.92;13.06;98377.13;5109590;28;20079;-66
2022/03/30 10:36:32;;;;;;;2.42;1.52;;;;;;;12.77;12.77;98404.91;5058214;28;20067;-66
2022/03/30 10:39:14;;;;;;;1.38;1.10;;;;;;;14.40;12.78;98374.59;5108076;28;20052;-66
2022/03/30 10:42:09;;;;;;;4.35;2.50;;;;;;;15.86;12.23;98404.38;5108561;28;20031;-66
2022/03/30 10:44:49;;;;;;;3.28;1.27;;;;;;;16.42;11.53;98408.50;5105552;28;20522;-66
2022/03/30 10:47:21;;;;;;;2.35;1.50;;;;;;;18.05;10.24;98413.28;5110175;28;20124;-67
2022/03/30 10:49:55;;;;;;;5.07;2.10;;;;;;;17.48;10.31;98396.06;5108615;28;20043;-66
2022/03/30 10:52:28;;;;;;;2.13;1.05;;;;;;;16.44;11.04;98402.94;5108331;28;20052;-66
2022/03/30 10:55:12;;;;;;;1.80;1.08;;;;;;;16.02;11.53;98401.94;5109150;28;20043;-66
2022/03/30 10:57:58;;;;;;;2.33;0.90;;;;;;;15.76;12.04;98396.84;5109823;28;20039;-66
2022/03/30 11:00:36;;;;;;;2.92;1.30;;;;;;;15.28;12.15;98403.88;5108367;28;20047;-66
2022/03/30 11:03:16;;;;;;;1.73;1.30;;;;;;;15.33;12.37;98414.72;5091622;28;20112;-66
2022/03/30 11:05:58;;;;;;;3.00;1.10;;;;;;;14.89;12.34;98404.94;5091481;28;20084;-66
2022/03/30 11:08:34;;;;;;;2.70;1.20;;;;;;;14.41;12.50;98413.59;5091656;28;20039;-66
2022/03/30 11:11:34;;;;;;;2.30;1.30;;;;;;;13.83;13.23;98407.41;5091225;28;20049;-67
2022/03/30 11:14:22;;;;;;;3.40;1.48;;;;;;;13.23;13.57;98413.81;5108339;28;20091;-66
2022/03/30 11:16:49;;;;;;;4.32;2.08;;;;;;;11.98;13.51;98376.34;5090865;28;20047;-66
2022/03/30 11:19:15;;;;;;;1.85;1.05;;;;;;;11.69;14.08;98419.97;5112734;28;20040;-67
2022/03/30 11:21:53;;;;;;;1.40;1.00;;;;;;;11.46;14.34;98411.38;5077845;28;20062;-67
2022/03/30 11:24:20;;;;;;;1.52;1.30;;;;;;;11.30;14.35;98410.84;5111631;28;20500;-67
2022/03/30 11:26:48;;;;;;;2.20;1.20;;;;;;;11.20;14.54;98411.19;5111461;28;20063;-67
2022/03/30 11:29:48;;;;;;;3.80;1.05;;;;;;;11.82;14.28;98419.25;5112640;28;20042;-68
2022/03/30 11:32:28;;;;;;;1.42;1.10;;;;;;;11.90;14.52;98430.53;5079134;28;20512;-68
2022/03/30 11:34:57;;;;;;;1.92;1.00;;;;;;;12.00;14.17;98392.94;5111225;28;20439;-68
2022/03/30 11:37:28;;;;;;;3.30;1.00;;;;;;;12.03;14.00;98392.53;5112085;28;20089;-66
2022/03/30 11:40:21;;;;;;;1.13;0.90;;;;;;;11.94;14.38;98420.31;5076924;28;20066;-66
2022/03/30 11:42:53;;;;;;;2.67;1.13;;;;;;;11.34;14.98;98414.75;5112345;28;20043;-66
2022/03/30 11:45:22;;;;;;;1.73;1.10;;;;;;;10.75;15.59;98422.19;5093549;28;20074;-66
2022/03/30 11:47:49;;;;;;;5.82;1.85;;;;;;;10.72;15.41;98416.41;5111484;28;20117;-69
2022/03/30 11:50:20;;;;;;;3.08;1.50;;;;;;;10.80;15.50;98414.47;5093394;28;20044;-67
2022/03/30 11:53:00;;;;;;;3.33;1.20;;;;;;;10.99;15.68;98413.84;5110467;28;20043;-67
2022/03/30 11:55:32;;;;;;;0.90;0.90;;;;;;;10.35;15.30;98379.47;5093402;28;20051;-67
2022/03/30 11:58:01;;;;;;;2.45;1.60;;;;;;;10.52;14.80;98418.06;5093366;28;20040;-67